sensor_id;sensor_type;location;lat;lon;timestamp;P1;durP1;ratioP1;P2;durP2;ratioP2
20381;SDS011;10350;51.280;12.400;2022-10-31T00:02:21;12.27;;;5.45;;
20381;SDS011;10350;51.280;12.400;2022-10-31T00:04:48;15.07;;;6.00;;
20381;SDS011;10350;51.280;12.400;2022-10-31T00:07:13;12.75;;;5.75;;
20381;SDS011;10350;51.280;12.400;2022-10-31T00:09:39;12.10;;;6.05;;
20381;SDS011;10350;51.280;12.400;2022-10-31T00:12:05;11.13;;;5.22;;
20381;SDS011;10350;51.280;12.400;2022-10-31T00:14:31;13.48;;;5.25;;
20381;SDS011;10350;51.280;12.400;2022-10-31T00:16:57;10.27;;;5.38;;
20381;SDS011;10350;51.280;12.400;2022-10-31T00:19:23;9.82;;;5.75;;
20381;SDS011;10350;51.280;12.400;2022-10-31T00:21:51;16.48;;;5.63;;
20381;SDS011;10350;51.280;12.400;2022-10-31T00:24:17;17.30;;;5.70;;
20381;SDS011;10350;51.280;12.400;2022-10-31T00:26:43;8.02;;;5.32;;
20381;SDS011;10350;51.280;12.400;2022-10-31T00:29:09;10.25;;;5.93;;
20381;SDS011;10350;51.280;12.400;2022-10-31T00:31:35;9.93;;;5.50;;
20381;SDS011;10350;51.280;12.400;2022-10-31T00:34:01;10.02;;;5.10;;
20381;SDS011;10350;51.280;12.400;2022-10-31T00:36:27;9.93;;;5.60;;
20381;SDS011;10350;51.280;12.400;2022-10-31T00:38:53;12.93;;;5.60;;
20381;SDS011;10350;51.280;12.400;2022-10-31T00:41:19;9.27;;;5.75;;
20381;SDS011;10350;51.280;12.400;2022-10-31T00:43:45;15.85;;;6.30;;
20381;SDS011;10350;51.280;12.400;2022-10-31T00:46:12;13.73;;;5.95;;
20381;SDS011;10350;51.280;12.400;2022-10-31T00:48:38;9.43;;;5.70;;
20381;SDS011;10350;51.280;12.400;2022-10-31T00:51:04;12.23;;;5.70;;
20381;SDS011;10350;51.280;12.400;2022-10-31T00:53:30;12.60;;;5.50;;
20381;SDS011;10350;51.280;12.400;2022-10-31T00:55:56;11.15;;;5.47;;
20381;SDS011;10350;51.280;12.400;2022-10-31T00:58:22;11.60;;;6.32;;
20381;SDS011;10350;51.280;12.400;2022-10-31T01:00:48;9.13;;;5.53;;
20381;SDS011;10350;51.280;12.400;2022-10-31T01:03:20;15.23;;;6.20;;
20381;SDS011;10350;51.280;12.400;2022-10-31T01:05:54;13.32;;;6.22;;
20381;SDS011;10350;51.280;12.400;2022-10-31T01:08:21;17.00;;;6.35;;
20381;SDS011;10350;51.280;12.400;2022-10-31T01:10:46;15.60;;;5.50;;
20381;SDS011;10350;51.280;12.400;2022-10-31T01:13:23;11.35;;;5.75;;
20381;SDS011;10350;51.280;12.400;2022-10-31T01:15:53;8.95;;;5.75;;
20381;SDS011;10350;51.280;12.400;2022-10-31T01:18:19;13.20;;;6.10;;
20381;SDS011;10350;51.280;12.400;2022-10-31T01:20:45;12.27;;;5.88;;
20381;SDS011;10350;51.280;12.400;2022-10-31T01:23:11;14.35;;;5.88;;
20381;SDS011;10350;51.280;12.400;2022-10-31T01:25:37;13.95;;;5.55;;
20381;SDS011;10350;51.280;12.400;2022-10-31T01:28:03;13.15;;;5.72;;
20381;SDS011;10350;51.280;12.400;2022-10-31T01:30:29;13.38;;;6.03;;
20381;SDS011;10350;51.280;12.400;2022-10-31T01:32:56;18.95;;;6.00;;
20381;SDS011;10350;51.280;12.400;2022-10-31T01:35:22;11.02;;;6.07;;
20381;SDS011;10350;51.280;12.400;2022-10-31T01:37:48;17.88;;;5.88;;
20381;SDS011;10350;51.280;12.400;2022-10-31T01:40:14;11.02;;;5.03;;
20381;SDS011;10350;51.280;12.400;2022-10-31T01:42:40;9.50;;;5.50;;
20381;SDS011;10350;51.280;12.400;2022-10-31T01:45:09;12.68;;;6.05;;
20381;SDS011;10350;51.280;12.400;2022-10-31T01:47:45;11.10;;;5.60;;
20381;SDS011;10350;51.280;12.400;2022-10-31T01:50:33;7.97;;;5.05;;
20381;SDS011;10350;51.280;12.400;2022-10-31T01:52:58;14.15;;;5.30;;
20381;SDS011;10350;51.280;12.400;2022-10-31T01:55:26;10.93;;;5.20;;
20381;SDS011;10350;51.280;12.400;2022-10-31T01:57:55;11.02;;;5.38;;
20381;SDS011;10350;51.280;12.400;2022-10-31T02:00:22;13.48;;;5.47;;
20381;SDS011;10350;51.280;12.400;2022-10-31T02:02:49;11.52;;;5.68;;
20381;SDS011;10350;51.280;12.400;2022-10-31T02:05:16;10.70;;;4.85;;
20381;SDS011;10350;51.280;12.400;2022-10-31T02:07:44;12.48;;;5.20;;
20381;SDS011;10350;51.280;12.400;2022-10-31T02:10:11;8.90;;;5.22;;
20381;SDS011;10350;51.280;12.400;2022-10-31T02:12:37;10.88;;;5.35;;
20381;SDS011;10350;51.280;12.400;2022-10-31T02:15:03;11.30;;;5.22;;
20381;SDS011;10350;51.280;12.400;2022-10-31T02:17:29;9.85;;;4.78;;
20381;SDS011;10350;51.280;12.400;2022-10-31T02:35:49;8.88;;;5.30;;
20381;SDS011;10350;51.280;12.400;2022-10-31T02:48:28;9.38;;;5.13;;
20381;SDS011;10350;51.280;12.400;2022-10-31T02:50:55;9.43;;;5.78;;
20381;SDS011;10350;51.280;12.400;2022-10-31T02:56:08;8.93;;;5.13;;
20381;SDS011;10350;51.280;12.400;2022-10-31T02:58:38;13.50;;;5.78;;
20381;SDS011;10350;51.280;12.400;2022-10-31T03:01:39;14.27;;;5.00;;
20381;SDS011;10350;51.280;12.400;2022-10-31T03:06:25;12.57;;;5.38;;
20381;SDS011;10350;51.280;12.400;2022-10-31T03:09:13;11.07;;;4.80;;
20381;SDS011;10350;51.280;12.400;2022-10-31T03:11:55;12.07;;;5.30;;
20381;SDS011;10350;51.280;12.400;2022-10-31T03:14:25;10.43;;;5.07;;
20381;SDS011;10350;51.280;12.400;2022-10-31T03:16:53;13.90;;;5.22;;
20381;SDS011;10350;51.280;12.400;2022-10-31T03:19:28;8.60;;;4.87;;
20381;SDS011;10350;51.280;12.400;2022-10-31T03:21:56;8.68;;;4.53;;
20381;SDS011;10350;51.280;12.400;2022-10-31T03:24:25;9.35;;;4.70;;
20381;SDS011;10350;51.280;12.400;2022-10-31T03:26:53;19.42;;;5.55;;
20381;SDS011;10350;51.280;12.400;2022-10-31T03:29:22;12.55;;;4.38;;
20381;SDS011;10350;51.280;12.400;2022-10-31T03:31:51;8.25;;;4.85;;
20381;SDS011;10350;51.280;12.400;2022-10-31T03:36:43;8.23;;;4.25;;
20381;SDS011;10350;51.280;12.400;2022-10-31T03:39:11;7.50;;;4.45;;
20381;SDS011;10350;51.280;12.400;2022-10-31T03:41:40;8.77;;;4.28;;
20381;SDS011;10350;51.280;12.400;2022-10-31T03:44:11;10.23;;;4.25;;
20381;SDS011;10350;51.280;12.400;2022-10-31T03:46:38;10.00;;;4.50;;
20381;SDS011;10350;51.280;12.400;2022-10-31T03:49:04;11.77;;;5.05;;
20381;SDS011;10350;51.280;12.400;2022-10-31T03:56:56;7.97;;;4.05;;
20381;SDS011;10350;51.280;12.400;2022-10-31T03:59:24;9.68;;;4.22;;
20381;SDS011;10350;51.280;12.400;2022-10-31T04:01:52;8.05;;;4.85;;
20381;SDS011;10350;51.280;12.400;2022-10-31T04:04:19;9.60;;;4.43;;
20381;SDS011;10350;51.280;12.400;2022-10-31T04:06:45;13.75;;;4.82;;
20381;SDS011;10350;51.280;12.400;2022-10-31T04:09:12;10.23;;;4.90;;
20381;SDS011;10350;51.280;12.400;2022-10-31T04:11:49;13.10;;;4.63;;
20381;SDS011;10350;51.280;12.400;2022-10-31T04:14:16;15.02;;;4.85;;
20381;SDS011;10350;51.280;12.400;2022-10-31T04:16:42;16.17;;;5.35;;
20381;SDS011;10350;51.280;12.400;2022-10-31T04:19:12;8.98;;;4.57;;
20381;SDS011;10350;51.280;12.400;2022-10-31T04:21:38;9.80;;;4.40;;
20381;SDS011;10350;51.280;12.400;2022-10-31T04:24:04;11.32;;;4.82;;
20381;SDS011;10350;51.280;12.400;2022-10-31T04:26:30;7.78;;;4.22;;
20381;SDS011;10350;51.280;12.400;2022-10-31T04:28:56;9.80;;;4.68;;
20381;SDS011;10350;51.280;12.400;2022-10-31T04:31:22;10.27;;;4.63;;
20381;SDS011;10350;51.280;12.400;2022-10-31T04:33:48;7.07;;;5.13;;
20381;SDS011;10350;51.280;12.400;2022-10-31T04:36:14;9.75;;;5.68;;
20381;SDS011;10350;51.280;12.400;2022-10-31T04:38:40;8.88;;;4.25;;
20381;SDS011;10350;51.280;12.400;2022-10-31T04:41:06;10.75;;;4.50;;
20381;SDS011;10350;51.280;12.400;2022-10-31T04:43:32;9.85;;;4.30;;
20381;SDS011;10350;51.280;12.400;2022-10-31T04:45:58;7.93;;;4.88;;
20381;SDS011;10350;51.280;12.400;2022-10-31T04:48:24;8.10;;;4.45;;
20381;SDS011;10350;51.280;12.400;2022-10-31T04:50:50;11.45;;;4.55;;
20381;SDS011;10350;51.280;12.400;2022-10-31T04:53:16;9.27;;;4.80;;
20381;SDS011;10350;51.280;12.400;2022-10-31T04:55:42;8.02;;;4.75;;
20381;SDS011;10350;51.280;12.400;2022-10-31T04:58:10;8.85;;;4.97;;
20381;SDS011;10350;51.280;12.400;2022-10-31T05:00:36;13.45;;;5.53;;
20381;SDS011;10350;51.280;12.400;2022-10-31T05:03:02;7.28;;;4.80;;
20381;SDS011;10350;51.280;12.400;2022-10-31T05:05:29;11.60;;;5.10;;
20381;SDS011;10350;51.280;12.400;2022-10-31T05:07:55;7.70;;;4.55;;
20381;SDS011;10350;51.280;12.400;2022-10-31T05:10:22;9.73;;;4.82;;
20381;SDS011;10350;51.280;12.400;2022-10-31T05:12:54;8.27;;;4.60;;
20381;SDS011;10350;51.280;12.400;2022-10-31T05:15:21;9.27;;;4.60;;
20381;SDS011;10350;51.280;12.400;2022-10-31T05:17:47;6.97;;;4.40;;
20381;SDS011;10350;51.280;12.400;2022-10-31T05:20:14;7.90;;;4.30;;
20381;SDS011;10350;51.280;12.400;2022-10-31T05:22:44;7.45;;;4.53;;
20381;SDS011;10350;51.280;12.400;2022-10-31T05:25:11;9.07;;;4.82;;
20381;SDS011;10350;51.280;12.400;2022-10-31T05:27:40;8.13;;;4.68;;
20381;SDS011;10350;51.280;12.400;2022-10-31T05:30:07;10.18;;;4.80;;
20381;SDS011;10350;51.280;12.400;2022-10-31T05:32:39;9.13;;;4.40;;
20381;SDS011;10350;51.280;12.400;2022-10-31T05:35:06;13.70;;;5.53;;
20381;SDS011;10350;51.280;12.400;2022-10-31T05:37:36;7.15;;;4.20;;
20381;SDS011;10350;51.280;12.400;2022-10-31T05:40:02;9.75;;;4.57;;
20381;SDS011;10350;51.280;12.400;2022-10-31T05:42:28;7.80;;;5.13;;
20381;SDS011;10350;51.280;12.400;2022-10-31T05:44:54;11.27;;;4.90;;
20381;SDS011;10350;51.280;12.400;2022-10-31T05:47:20;7.57;;;4.47;;
20381;SDS011;10350;51.280;12.400;2022-10-31T05:49:46;7.60;;;4.70;;
20381;SDS011;10350;51.280;12.400;2022-10-31T05:52:12;9.10;;;4.65;;
20381;SDS011;10350;51.280;12.400;2022-10-31T05:54:39;11.20;;;5.15;;
20381;SDS011;10350;51.280;12.400;2022-10-31T05:57:05;7.32;;;4.57;;
20381;SDS011;10350;51.280;12.400;2022-10-31T05:59:33;11.15;;;4.65;;
20381;SDS011;10350;51.280;12.400;2022-10-31T06:01:59;8.95;;;4.80;;
20381;SDS011;10350;51.280;12.400;2022-10-31T06:04:25;12.18;;;4.65;;
20381;SDS011;10350;51.280;12.400;2022-10-31T06:06:51;9.18;;;4.03;;
20381;SDS011;10350;51.280;12.400;2022-10-31T06:09:17;10.38;;;4.75;;
20381;SDS011;10350;51.280;12.400;2022-10-31T06:11:43;8.90;;;4.72;;
20381;SDS011;10350;51.280;12.400;2022-10-31T06:14:09;10.70;;;4.75;;
20381;SDS011;10350;51.280;12.400;2022-10-31T06:16:35;7.70;;;4.32;;
20381;SDS011;10350;51.280;12.400;2022-10-31T06:19:01;6.53;;;4.30;;
20381;SDS011;10350;51.280;12.400;2022-10-31T06:21:27;10.75;;;4.85;;
20381;SDS011;10350;51.280;12.400;2022-10-31T06:23:53;7.93;;;4.13;;
20381;SDS011;10350;51.280;12.400;2022-10-31T06:26:19;6.70;;;4.15;;
20381;SDS011;10350;51.280;12.400;2022-10-31T06:28:45;8.93;;;4.75;;
20381;SDS011;10350;51.280;12.400;2022-10-31T06:31:11;8.07;;;4.38;;
20381;SDS011;10350;51.280;12.400;2022-10-31T06:33:37;11.73;;;5.60;;
20381;SDS011;10350;51.280;12.400;2022-10-31T06:36:04;10.18;;;5.30;;
20381;SDS011;10350;51.280;12.400;2022-10-31T06:38:30;13.63;;;5.82;;
20381;SDS011;10350;51.280;12.400;2022-10-31T06:40:56;13.93;;;5.38;;
20381;SDS011;10350;51.280;12.400;2022-10-31T06:43:22;16.58;;;5.40;;
20381;SDS011;10350;51.280;12.400;2022-10-31T06:45:48;11.55;;;5.00;;
20381;SDS011;10350;51.280;12.400;2022-10-31T06:48:14;11.05;;;4.90;;
20381;SDS011;10350;51.280;12.400;2022-10-31T06:50:40;9.10;;;5.22;;
20381;SDS011;10350;51.280;12.400;2022-10-31T06:53:06;11.35;;;5.63;;
20381;SDS011;10350;51.280;12.400;2022-10-31T06:55:32;10.90;;;6.00;;
20381;SDS011;10350;51.280;12.400;2022-10-31T06:57:59;7.93;;;5.15;;
20381;SDS011;10350;51.280;12.400;2022-10-31T07:00:26;10.98;;;5.70;;
20381;SDS011;10350;51.280;12.400;2022-10-31T07:03:03;12.77;;;5.57;;
20381;SDS011;10350;51.280;12.400;2022-10-31T07:05:29;10.27;;;5.38;;
20381;SDS011;10350;51.280;12.400;2022-10-31T07:07:56;16.23;;;5.53;;
20381;SDS011;10350;51.280;12.400;2022-10-31T07:10:23;12.05;;;6.05;;
20381;SDS011;10350;51.280;12.400;2022-10-31T07:13:00;9.55;;;6.03;;
20381;SDS011;10350;51.280;12.400;2022-10-31T07:15:28;12.63;;;5.75;;
20381;SDS011;10350;51.280;12.400;2022-10-31T07:17:59;10.25;;;6.05;;
20381;SDS011;10350;51.280;12.400;2022-10-31T07:20:26;10.43;;;6.13;;
20381;SDS011;10350;51.280;12.400;2022-10-31T07:22:52;10.55;;;6.00;;
20381;SDS011;10350;51.280;12.400;2022-10-31T07:25:18;12.60;;;6.15;;
20381;SDS011;10350;51.280;12.400;2022-10-31T07:27:44;13.75;;;5.95;;
20381;SDS011;10350;51.280;12.400;2022-10-31T07:30:11;12.68;;;6.15;;
20381;SDS011;10350;51.280;12.400;2022-10-31T07:32:38;10.05;;;6.50;;
20381;SDS011;10350;51.280;12.400;2022-10-31T07:35:04;13.70;;;6.75;;
20381;SDS011;10350;51.280;12.400;2022-10-31T07:37:30;10.50;;;6.75;;
20381;SDS011;10350;51.280;12.400;2022-10-31T07:39:56;8.65;;;5.22;;
20381;SDS011;10350;51.280;12.400;2022-10-31T07:42:22;10.68;;;6.38;;
20381;SDS011;10350;51.280;12.400;2022-10-31T07:44:48;10.65;;;5.65;;
20381;SDS011;10350;51.280;12.400;2022-10-31T07:47:15;7.85;;;5.80;;
20381;SDS011;10350;51.280;12.400;2022-10-31T07:49:42;12.75;;;6.53;;
20381;SDS011;10350;51.280;12.400;2022-10-31T07:52:08;9.57;;;5.93;;
20381;SDS011;10350;51.280;12.400;2022-10-31T07:54:34;19.45;;;7.07;;
20381;SDS011;10350;51.280;12.400;2022-10-31T07:57:06;13.30;;;5.80;;
20381;SDS011;10350;51.280;12.400;2022-10-31T07:59:32;12.40;;;5.90;;
20381;SDS011;10350;51.280;12.400;2022-10-31T08:01:58;8.73;;;5.28;;
20381;SDS011;10350;51.280;12.400;2022-10-31T08:04:24;20.25;;;6.53;;
20381;SDS011;10350;51.280;12.400;2022-10-31T08:06:50;14.65;;;6.13;;
20381;SDS011;10350;51.280;12.400;2022-10-31T08:09:16;17.55;;;6.97;;
20381;SDS011;10350;51.280;12.400;2022-10-31T08:11:42;13.68;;;5.43;;
20381;SDS011;10350;51.280;12.400;2022-10-31T08:14:08;13.80;;;5.50;;
20381;SDS011;10350;51.280;12.400;2022-10-31T08:16:34;7.95;;;4.70;;
20381;SDS011;10350;51.280;12.400;2022-10-31T08:19:00;9.70;;;4.93;;
20381;SDS011;10350;51.280;12.400;2022-10-31T08:21:26;10.40;;;5.13;;
20381;SDS011;10350;51.280;12.400;2022-10-31T08:23:52;10.85;;;4.75;;
20381;SDS011;10350;51.280;12.400;2022-10-31T08:26:18;8.45;;;4.78;;
20381;SDS011;10350;51.280;12.400;2022-10-31T08:28:44;15.38;;;4.38;;
20381;SDS011;10350;51.280;12.400;2022-10-31T08:31:11;7.68;;;4.57;;
20381;SDS011;10350;51.280;12.400;2022-10-31T08:33:37;10.85;;;3.97;;
20381;SDS011;10350;51.280;12.400;2022-10-31T08:36:03;8.50;;;5.25;;
20381;SDS011;10350;51.280;12.400;2022-10-31T08:38:29;6.70;;;4.68;;
20381;SDS011;10350;51.280;12.400;2022-10-31T08:40:55;6.88;;;3.17;;
20381;SDS011;10350;51.280;12.400;2022-10-31T08:43:21;9.02;;;4.40;;
20381;SDS011;10350;51.280;12.400;2022-10-31T08:45:48;8.27;;;3.90;;
20381;SDS011;10350;51.280;12.400;2022-10-31T08:48:15;10.48;;;4.22;;
20381;SDS011;10350;51.280;12.400;2022-10-31T08:50:42;10.25;;;4.50;;
20381;SDS011;10350;51.280;12.400;2022-10-31T08:53:15;8.60;;;4.53;;
20381;SDS011;10350;51.280;12.400;2022-10-31T08:55:42;10.75;;;5.05;;
20381;SDS011;10350;51.280;12.400;2022-10-31T08:58:12;5.88;;;4.00;;
20381;SDS011;10350;51.280;12.400;2022-10-31T09:00:39;12.15;;;4.45;;
20381;SDS011;10350;51.280;12.400;2022-10-31T09:03:06;8.68;;;5.05;;
20381;SDS011;10350;51.280;12.400;2022-10-31T09:05:32;8.63;;;4.63;;
20381;SDS011;10350;51.280;12.400;2022-10-31T09:07:59;11.45;;;5.03;;
20381;SDS011;10350;51.280;12.400;2022-10-31T09:10:26;11.93;;;5.10;;
20381;SDS011;10350;51.280;12.400;2022-10-31T09:13:00;11.23;;;5.55;;
20381;SDS011;10350;51.280;12.400;2022-10-31T09:15:29;13.95;;;5.63;;
20381;SDS011;10350;51.280;12.400;2022-10-31T09:17:56;11.63;;;5.10;;
20381;SDS011;10350;51.280;12.400;2022-10-31T09:20:22;13.68;;;5.72;;
20381;SDS011;10350;51.280;12.400;2022-10-31T09:22:48;17.27;;;6.72;;
20381;SDS011;10350;51.280;12.400;2022-10-31T09:25:20;15.15;;;7.38;;
20381;SDS011;10350;51.280;12.400;2022-10-31T09:27:47;19.77;;;8.25;;
20381;SDS011;10350;51.280;12.400;2022-10-31T09:30:12;19.13;;;7.93;;
20381;SDS011;10350;51.280;12.400;2022-10-31T09:32:44;22.15;;;8.18;;
20381;SDS011;10350;51.280;12.400;2022-10-31T09:35:10;20.33;;;8.85;;
20381;SDS011;10350;51.280;12.400;2022-10-31T09:37:36;24.60;;;9.45;;
20381;SDS011;10350;51.280;12.400;2022-10-31T09:40:03;23.30;;;9.85;;
20381;SDS011;10350;51.280;12.400;2022-10-31T09:42:42;22.77;;;10.30;;
20381;SDS011;10350;51.280;12.400;2022-10-31T09:45:11;25.08;;;10.48;;
20381;SDS011;10350;51.280;12.400;2022-10-31T09:47:45;26.48;;;11.95;;
20381;SDS011;10350;51.280;12.400;2022-10-31T09:50:21;32.08;;;13.40;;
20381;SDS011;10350;51.280;12.400;2022-10-31T09:52:54;31.33;;;13.70;;
20381;SDS011;10350;51.280;12.400;2022-10-31T09:55:41;29.33;;;13.80;;
20381;SDS011;10350;51.280;12.400;2022-10-31T09:58:15;30.35;;;14.38;;
20381;SDS011;10350;51.280;12.400;2022-10-31T10:00:45;33.13;;;13.15;;
20381;SDS011;10350;51.280;12.400;2022-10-31T10:03:24;30.35;;;14.68;;
20381;SDS011;10350;51.280;12.400;2022-10-31T10:08:29;28.60;;;14.25;;
20381;SDS011;10350;51.280;12.400;2022-10-31T10:11:05;29.67;;;13.38;;
20381;SDS011;10350;51.280;12.400;2022-10-31T10:13:51;33.20;;;14.80;;
20381;SDS011;10350;51.280;12.400;2022-10-31T10:29:36;29.45;;;13.63;;
20381;SDS011;10350;51.280;12.400;2022-10-31T10:32:06;31.10;;;13.73;;
20381;SDS011;10350;51.280;12.400;2022-10-31T10:34:43;28.65;;;14.00;;
20381;SDS011;10350;51.280;12.400;2022-10-31T10:37:26;32.53;;;13.68;;
20381;SDS011;10350;51.280;12.400;2022-10-31T10:39:55;32.70;;;13.63;;
20381;SDS011;10350;51.280;12.400;2022-10-31T10:42:23;30.80;;;12.82;;
20381;SDS011;10350;51.280;12.400;2022-10-31T10:45:16;26.23;;;12.05;;
20381;SDS011;10350;51.280;12.400;2022-10-31T10:48:45;39.45;;;14.95;;
20381;SDS011;10350;51.280;12.400;2022-10-31T10:50:51;33.38;;;12.60;;
20381;SDS011;10350;51.280;12.400;2022-10-31T10:58:36;35.05;;;12.82;;
20381;SDS011;10350;51.280;12.400;2022-10-31T11:01:08;34.92;;;14.60;;
20381;SDS011;10350;51.280;12.400;2022-10-31T11:03:37;31.52;;;13.63;;
20381;SDS011;10350;51.280;12.400;2022-10-31T11:06:03;32.33;;;13.50;;
20381;SDS011;10350;51.280;12.400;2022-10-31T11:08:33;34.85;;;14.30;;
20381;SDS011;10350;51.280;12.400;2022-10-31T11:13:35;26.23;;;12.68;;
20381;SDS011;10350;51.280;12.400;2022-10-31T11:16:03;31.88;;;14.25;;
20381;SDS011;10350;51.280;12.400;2022-10-31T11:18:31;34.50;;;13.73;;
20381;SDS011;10350;51.280;12.400;2022-10-31T11:20:58;29.73;;;13.23;;
20381;SDS011;10350;51.280;12.400;2022-10-31T11:23:26;35.70;;;15.48;;
20381;SDS011;10350;51.280;12.400;2022-10-31T11:26:02;38.17;;;13.60;;
20381;SDS011;10350;51.280;12.400;2022-10-31T11:28:29;35.25;;;15.10;;
20381;SDS011;10350;51.280;12.400;2022-10-31T11:31:01;31.13;;;14.70;;
20381;SDS011;10350;51.280;12.400;2022-10-31T11:33:35;35.60;;;15.50;;
20381;SDS011;10350;51.280;12.400;2022-10-31T11:36:03;33.35;;;14.98;;
20381;SDS011;10350;51.280;12.400;2022-10-31T11:38:34;28.55;;;14.05;;
20381;SDS011;10350;51.280;12.400;2022-10-31T11:41:08;36.95;;;15.43;;
20381;SDS011;10350;51.280;12.400;2022-10-31T11:43:35;33.42;;;15.00;;
20381;SDS011;10350;51.280;12.400;2022-10-31T11:46:09;36.05;;;14.57;;
20381;SDS011;10350;51.280;12.400;2022-10-31T11:48:35;31.90;;;13.23;;
20381;SDS011;10350;51.280;12.400;2022-10-31T11:51:01;33.90;;;14.65;;
20381;SDS011;10350;51.280;12.400;2022-10-31T11:53:28;28.23;;;14.70;;
20381;SDS011;10350;51.280;12.400;2022-10-31T11:56:02;31.52;;;14.07;;
20381;SDS011;10350;51.280;12.400;2022-10-31T11:58:29;28.65;;;14.13;;
20381;SDS011;10350;51.280;12.400;2022-10-31T12:00:58;33.80;;;13.80;;
20381;SDS011;10350;51.280;12.400;2022-10-31T12:06:28;30.05;;;13.05;;
20381;SDS011;10350;51.280;12.400;2022-10-31T12:08:55;31.30;;;13.30;;
20381;SDS011;10350;51.280;12.400;2022-10-31T12:16:50;36.38;;;14.15;;
20381;SDS011;10350;51.280;12.400;2022-10-31T12:19:22;35.55;;;14.77;;
20381;SDS011;10350;51.280;12.400;2022-10-31T12:42:28;32.40;;;14.38;;
20381;SDS011;10350;51.280;12.400;2022-10-31T12:47:40;31.05;;;13.63;;
20381;SDS011;10350;51.280;12.400;2022-10-31T12:50:22;37.78;;;14.07;;
20381;SDS011;10350;51.280;12.400;2022-10-31T12:57:48;36.47;;;14.98;;
20381;SDS011;10350;51.280;12.400;2022-10-31T13:00:16;43.20;;;15.18;;
20381;SDS011;10350;51.280;12.400;2022-10-31T13:07:46;37.53;;;14.05;;
20381;SDS011;10350;51.280;12.400;2022-10-31T13:10:23;31.92;;;13.60;;
20381;SDS011;10350;51.280;12.400;2022-10-31T13:12:52;32.92;;;14.98;;
20381;SDS011;10350;51.280;12.400;2022-10-31T13:15:21;37.38;;;13.90;;
20381;SDS011;10350;51.280;12.400;2022-10-31T13:17:53;32.20;;;14.50;;
20381;SDS011;10350;51.280;12.400;2022-10-31T13:20:24;40.20;;;14.95;;
20381;SDS011;10350;51.280;12.400;2022-10-31T13:22:52;39.80;;;16.73;;
20381;SDS011;10350;51.280;12.400;2022-10-31T13:25:21;32.22;;;13.27;;
20381;SDS011;10350;51.280;12.400;2022-10-31T13:27:51;29.50;;;14.82;;
20381;SDS011;10350;51.280;12.400;2022-10-31T13:30:19;38.85;;;14.30;;
20381;SDS011;10350;51.280;12.400;2022-10-31T13:35:38;29.35;;;13.38;;
20381;SDS011;10350;51.280;12.400;2022-10-31T13:40:59;30.65;;;13.60;;
20381;SDS011;10350;51.280;12.400;2022-10-31T13:46:34;28.08;;;12.27;;
20381;SDS011;10350;51.280;12.400;2022-10-31T13:49:00;35.85;;;14.35;;
20381;SDS011;10350;51.280;12.400;2022-10-31T13:51:30;29.88;;;14.43;;
20381;SDS011;10350;51.280;12.400;2022-10-31T13:53:57;26.40;;;12.35;;
20381;SDS011;10350;51.280;12.400;2022-10-31T13:56:25;24.60;;;11.07;;
20381;SDS011;10350;51.280;12.400;2022-10-31T14:04:06;21.70;;;10.43;;
20381;SDS011;10350;51.280;12.400;2022-10-31T14:06:38;30.83;;;12.52;;
20381;SDS011;10350;51.280;12.400;2022-10-31T14:09:05;17.90;;;10.55;;
20381;SDS011;10350;51.280;12.400;2022-10-31T14:11:40;32.88;;;14.07;;
20381;SDS011;10350;51.280;12.400;2022-10-31T14:14:11;24.08;;;12.55;;
20381;SDS011;10350;51.280;12.400;2022-10-31T14:16:42;26.75;;;10.70;;
20381;SDS011;10350;51.280;12.400;2022-10-31T14:19:18;26.75;;;11.25;;
20381;SDS011;10350;51.280;12.400;2022-10-31T14:21:46;25.05;;;12.50;;
20381;SDS011;10350;51.280;12.400;2022-10-31T14:26:51;27.10;;;11.98;;
20381;SDS011;10350;51.280;12.400;2022-10-31T14:31:44;26.83;;;12.30;;
20381;SDS011;10350;51.280;12.400;2022-10-31T14:34:18;28.92;;;12.82;;
20381;SDS011;10350;51.280;12.400;2022-10-31T14:40:10;32.08;;;13.10;;
20381;SDS011;10350;51.280;12.400;2022-10-31T14:52:13;32.28;;;13.80;;
20381;SDS011;10350;51.280;12.400;2022-10-31T14:54:41;31.48;;;12.65;;
20381;SDS011;10350;51.280;12.400;2022-10-31T14:57:20;29.50;;;13.40;;
20381;SDS011;10350;51.280;12.400;2022-10-31T14:59:50;30.05;;;12.50;;
20381;SDS011;10350;51.280;12.400;2022-10-31T15:02:24;31.13;;;13.27;;
20381;SDS011;10350;51.280;12.400;2022-10-31T15:04:52;32.10;;;14.85;;
20381;SDS011;10350;51.280;12.400;2022-10-31T15:07:23;34.97;;;16.13;;
20381;SDS011;10350;51.280;12.400;2022-10-31T15:10:23;33.25;;;15.23;;
20381;SDS011;10350;51.280;12.400;2022-10-31T15:12:41;29.33;;;15.00;;
20381;SDS011;10350;51.280;12.400;2022-10-31T15:15:17;29.05;;;14.07;;
20381;SDS011;10350;51.280;12.400;2022-10-31T15:17:44;32.70;;;14.88;;
20381;SDS011;10350;51.280;12.400;2022-10-31T15:20:11;34.97;;;15.17;;
20381;SDS011;10350;51.280;12.400;2022-10-31T15:22:37;37.70;;;16.23;;
20381;SDS011;10350;51.280;12.400;2022-10-31T15:25:03;32.63;;;15.05;;
20381;SDS011;10350;51.280;12.400;2022-10-31T15:27:33;27.33;;;14.85;;
20381;SDS011;10350;51.280;12.400;2022-10-31T15:29:59;37.13;;;16.33;;
20381;SDS011;10350;51.280;12.400;2022-10-31T15:32:28;36.92;;;17.83;;
20381;SDS011;10350;51.280;12.400;2022-10-31T15:34:55;41.15;;;18.65;;
20381;SDS011;10350;51.280;12.400;2022-10-31T15:37:22;36.75;;;17.83;;
20381;SDS011;10350;51.280;12.400;2022-10-31T15:39:50;36.92;;;15.65;;
20381;SDS011;10350;51.280;12.400;2022-10-31T15:44:42;36.92;;;17.50;;
20381;SDS011;10350;51.280;12.400;2022-10-31T15:47:18;39.45;;;18.80;;
20381;SDS011;10350;51.280;12.400;2022-10-31T15:49:52;36.40;;;16.77;;
20381;SDS011;10350;51.280;12.400;2022-10-31T15:55:04;44.70;;;18.88;;
20381;SDS011;10350;51.280;12.400;2022-10-31T15:57:31;30.90;;;16.20;;
20381;SDS011;10350;51.280;12.400;2022-10-31T15:59:58;46.05;;;20.35;;
20381;SDS011;10350;51.280;12.400;2022-10-31T16:02:25;38.17;;;17.55;;
20381;SDS011;10350;51.280;12.400;2022-10-31T16:05:01;43.83;;;20.77;;
20381;SDS011;10350;51.280;12.400;2022-10-31T16:07:28;52.30;;;21.65;;
20381;SDS011;10350;51.280;12.400;2022-10-31T16:10:01;45.20;;;21.90;;
20381;SDS011;10350;51.280;12.400;2022-10-31T16:12:34;43.13;;;22.42;;
20381;SDS011;10350;51.280;12.400;2022-10-31T16:15:01;51.70;;;21.48;;
20381;SDS011;10350;51.280;12.400;2022-10-31T16:17:28;53.78;;;23.50;;
20381;SDS011;10350;51.280;12.400;2022-10-31T16:19:56;54.33;;;24.40;;
20381;SDS011;10350;51.280;12.400;2022-10-31T16:22:26;50.63;;;24.15;;
20381;SDS011;10350;51.280;12.400;2022-10-31T16:27:27;49.63;;;24.23;;
20381;SDS011;10350;51.280;12.400;2022-10-31T16:29:54;53.50;;;24.75;;
20381;SDS011;10350;51.280;12.400;2022-10-31T16:32:32;55.40;;;26.33;;
20381;SDS011;10350;51.280;12.400;2022-10-31T16:37:37;63.45;;;28.33;;
20381;SDS011;10350;51.280;12.400;2022-10-31T16:40:03;58.85;;;26.75;;
20381;SDS011;10350;51.280;12.400;2022-10-31T16:42:29;66.00;;;29.67;;
20381;SDS011;10350;51.280;12.400;2022-10-31T16:44:55;58.28;;;25.38;;
20381;SDS011;10350;51.280;12.400;2022-10-31T16:47:21;57.97;;;28.67;;
20381;SDS011;10350;51.280;12.400;2022-10-31T16:49:48;58.35;;;28.67;;
20381;SDS011;10350;51.280;12.400;2022-10-31T16:52:15;71.68;;;31.90;;
20381;SDS011;10350;51.280;12.400;2022-10-31T16:54:41;73.85;;;31.55;;
20381;SDS011;10350;51.280;12.400;2022-10-31T16:57:09;60.90;;;28.52;;